sensor_id;sensor_type;location;lat;lon;timestamp;pressure;altitude;pressure_sealevel;temperature;humidity
34674;BME280;20879;55.668;37.858;2024-01-30T00:02:26;100837.06;;;-2.05;100.00
34674;BME280;20879;55.668;37.858;2024-01-30T00:07:36;100830.47;;;-2.01;100.00
34674;BME280;20879;55.668;37.858;2024-01-30T00:12:43;100828.31;;;-1.94;100.00
34674;BME280;20879;55.668;37.858;2024-01-30T00:17:55;100838.25;;;-1.98;100.00
34674;BME280;20879;55.668;37.858;2024-01-30T00:23:01;100836.97;;;-2.06;100.00
34674;BME280;20879;55.668;37.858;2024-01-30T00:28:07;100824.91;;;-2.11;100.00
34674;BME280;20879;55.668;37.858;2024-01-30T00:33:13;100827.06;;;-2.02;100.00
34674;BME280;20879;55.668;37.858;2024-01-30T00:38:32;100805.75;;;-2.20;100.00
34674;BME280;20879;55.668;37.858;2024-01-30T00:43:40;100827.94;;;-2.01;100.00
34674;BME280;20879;55.668;37.858;2024-01-30T00:48:47;100818.91;;;-1.96;100.00
34674;BME280;20879;55.668;37.858;2024-01-30T00:54:00;100814.22;;;-1.88;100.00
34674;BME280;20879;55.668;37.858;2024-01-30T00:59:09;100811.84;;;-1.85;100.00
34674;BME280;20879;55.668;37.858;2024-01-30T01:04:15;100825.25;;;-1.88;100.00
34674;BME280;20879;55.668;37.858;2024-01-30T01:09:25;100804.31;;;-1.84;100.00
34674;BME280;20879;55.668;37.858;2024-01-30T01:14:33;100799.69;;;-1.91;100.00
34674;BME280;20879;55.668;37.858;2024-01-30T01:19:44;100814.53;;;-1.82;100.00
34674;BME280;20879;55.668;37.858;2024-01-30T01:24:57;100795.91;;;-1.66;100.00
34674;BME280;20879;55.668;37.858;2024-01-30T01:30:10;100778.59;;;-1.73;100.00
34674;BME280;20879;55.668;37.858;2024-01-30T01:35:21;100777.59;;;-1.77;100.00
34674;BME280;20879;55.668;37.858;2024-01-30T01:40:30;100797.66;;;-1.65;100.00
34674;BME280;20879;55.668;37.858;2024-01-30T01:45:45;100794.44;;;-1.61;100.00
34674;BME280;20879;55.668;37.858;2024-01-30T01:50:51;100785.72;;;-1.50;100.00
34674;BME280;20879;55.668;37.858;2024-01-30T01:55:56;100771.44;;;-1.48;100.00
34674;BME280;20879;55.668;37.858;2024-01-30T02:01:05;100759.38;;;-1.52;100.00
34674;BME280;20879;55.668;37.858;2024-01-30T02:06:10;100730.03;;;-1.63;100.00
34674;BME280;20879;55.668;37.858;2024-01-30T02:16:43;100773.53;;;-1.23;99.69
34674;BME280;20879;55.668;37.858;2024-01-30T02:21:57;100770.34;;;-1.18;99.23
34674;BME280;20879;55.668;37.858;2024-01-30T02:27:07;100773.91;;;-1.15;99.21
34674;BME280;20879;55.668;37.858;2024-01-30T02:32:17;100776.44;;;-1.15;98.39
34674;BME280;20879;55.668;37.858;2024-01-30T02:37:29;100761.81;;;-1.02;98.70
34674;BME280;20879;55.668;37.858;2024-01-30T02:42:44;100754.97;;;-1.03;98.76
34674;BME280;20879;55.668;37.858;2024-01-30T02:47:49;100774.81;;;-0.96;98.37
34674;BME280;20879;55.668;37.858;2024-01-30T02:53:02;100764.06;;;-0.91;98.30
34674;BME280;20879;55.668;37.858;2024-01-30T02:58:08;100764.00;;;-0.92;98.00
34674;BME280;20879;55.668;37.858;2024-01-30T03:03:14;100769.06;;;-0.92;97.99
34674;BME280;20879;55.668;37.858;2024-01-30T03:08:27;100753.81;;;-0.92;98.44
34674;BME280;20879;55.668;37.858;2024-01-30T03:13:40;100753.75;;;-0.76;98.01
34674;BME280;20879;55.668;37.858;2024-01-30T03:18:48;100783.28;;;-0.78;98.00
34674;BME280;20879;55.668;37.858;2024-01-30T03:24:00;100786.66;;;-0.79;98.08
34674;BME280;20879;55.668;37.858;2024-01-30T03:29:07;100789.56;;;-0.71;98.17
34674;BME280;20879;55.668;37.858;2024-01-30T03:34:12;100797.41;;;-0.66;97.91
34674;BME280;20879;55.668;37.858;2024-01-30T03:39:28;100773.50;;;-0.52;97.37
34674;BME280;20879;55.668;37.858;2024-01-30T03:44:39;100786.22;;;-0.52;97.09
34674;BME280;20879;55.668;37.858;2024-01-30T03:49:46;100725.75;;;-0.76;97.34
34674;BME280;20879;55.668;37.858;2024-01-30T03:54:53;100789.53;;;-0.53;97.27
34674;BME280;20879;55.668;37.858;2024-01-30T04:00:16;100791.50;;;-0.47;96.99
34674;BME280;20879;55.668;37.858;2024-01-30T04:05:21;100803.09;;;-0.54;97.42
34674;BME280;20879;55.668;37.858;2024-01-30T04:10:37;100808.97;;;-0.55;97.73
34674;BME280;20879;55.668;37.858;2024-01-30T04:15:42;100806.84;;;-0.46;97.50
34674;BME280;20879;55.668;37.858;2024-01-30T04:20:53;100797.69;;;-0.42;96.95
34674;BME280;20879;55.668;37.858;2024-01-30T04:26:07;100797.31;;;-0.50;97.38
34674;BME280;20879;55.668;37.858;2024-01-30T04:31:15;100767.53;;;-0.52;97.58
34674;BME280;20879;55.668;37.858;2024-01-30T04:36:36;100792.53;;;-0.44;97.51
34674;BME280;20879;55.668;37.858;2024-01-30T04:41:43;100775.16;;;-0.34;97.57
34674;BME280;20879;55.668;37.858;2024-01-30T04:46:52;100749.16;;;-0.27;97.42
34674;BME280;20879;55.668;37.858;2024-01-30T04:52:03;100801.47;;;-0.34;97.24
34674;BME280;20879;55.668;37.858;2024-01-30T04:57:15;100801.66;;;-0.29;97.44
34674;BME280;20879;55.668;37.858;2024-01-30T05:02:20;100796.75;;;-0.26;97.45
34674;BME280;20879;55.668;37.858;2024-01-30T05:07:30;100810.84;;;-0.33;97.77
34674;BME280;20879;55.668;37.858;2024-01-30T05:12:39;100798.97;;;-0.32;98.19
34674;BME280;20879;55.668;37.858;2024-01-30T05:17:50;100799.50;;;-0.22;97.98
34674;BME280;20879;55.668;37.858;2024-01-30T05:23:01;100802.75;;;-0.24;98.35
34674;BME280;20879;55.668;37.858;2024-01-30T05:28:16;100794.47;;;-0.20;98.24
34674;BME280;20879;55.668;37.858;2024-01-30T05:33:20;100799.97;;;-0.11;98.31
34674;BME280;20879;55.668;37.858;2024-01-30T05:38:42;100821.94;;;-0.13;97.47
34674;BME280;20879;55.668;37.858;2024-01-30T05:43:53;100805.25;;;-0.06;97.95
34674;BME280;20879;55.668;37.858;2024-01-30T05:49:10;100817.06;;;-0.08;97.41
34674;BME280;20879;55.668;37.858;2024-01-30T05:54:22;100813.78;;;-0.06;97.60
34674;BME280;20879;55.668;37.858;2024-01-30T05:59:39;100829.88;;;-0.07;97.81
34674;BME280;20879;55.668;37.858;2024-01-30T06:04:44;100830.78;;;-0.05;97.79
34674;BME280;20879;55.668;37.858;2024-01-30T06:09:50;100832.63;;;-0.02;97.84
34674;BME280;20879;55.668;37.858;2024-01-30T06:15:00;100793.00;;;-0.15;97.58
34674;BME280;20879;55.668;37.858;2024-01-30T06:20:16;100835.22;;;-0.01;97.69
34674;BME280;20879;55.668;37.858;2024-01-30T06:25:24;100854.94;;;0.04;97.57
34674;BME280;20879;55.668;37.858;2024-01-30T06:30:39;100818.56;;;0.06;97.91
34674;BME280;20879;55.668;37.858;2024-01-30T06:35:49;100835.28;;;0.19;97.73
34674;BME280;20879;55.668;37.858;2024-01-30T06:40:54;100844.13;;;0.27;97.53
34674;BME280;20879;55.668;37.858;2024-01-30T06:46:06;100861.56;;;0.38;96.96
34674;BME280;20879;55.668;37.858;2024-01-30T06:51:26;100841.75;;;0.32;96.82
34674;BME280;20879;55.668;37.858;2024-01-30T06:56:34;100850.28;;;0.52;96.58
34674;BME280;20879;55.668;37.858;2024-01-30T07:01:41;100839.31;;;0.53;96.45
34674;BME280;20879;55.668;37.858;2024-01-30T07:06:46;100851.75;;;0.47;96.33
34674;BME280;20879;55.668;37.858;2024-01-30T07:12:01;100853.16;;;0.60;96.10
34674;BME280;20879;55.668;37.858;2024-01-30T07:17:14;100864.91;;;0.76;96.21
34674;BME280;20879;55.668;37.858;2024-01-30T07:22:32;100866.53;;;0.74;95.87
34674;BME280;20879;55.668;37.858;2024-01-30T07:27:43;100855.66;;;0.58;95.40
34674;BME280;20879;55.668;37.858;2024-01-30T07:32:51;100882.66;;;0.35;96.97
34674;BME280;20879;55.668;37.858;2024-01-30T07:38:08;100880.34;;;0.40;97.48
34674;BME280;20879;55.668;37.858;2024-01-30T07:43:14;100891.41;;;0.40;97.60
34674;BME280;20879;55.668;37.858;2024-01-30T07:48:25;100873.69;;;0.43;97.59
34674;BME280;20879;55.668;37.858;2024-01-30T07:53:30;100864.72;;;0.51;97.44
34674;BME280;20879;55.668;37.858;2024-01-30T07:58:35;100878.94;;;0.66;97.58
34674;BME280;20879;55.668;37.858;2024-01-30T08:03:42;100882.50;;;0.69;97.46
34674;BME280;20879;55.668;37.858;2024-01-30T08:08:52;100856.41;;;0.96;97.42
34674;BME280;20879;55.668;37.858;2024-01-30T08:14:04;100841.31;;;1.01;96.95
34674;BME280;20879;55.668;37.858;2024-01-30T08:19:20;100875.34;;;0.82;96.62
34674;BME280;20879;55.668;37.858;2024-01-30T08:24:26;100875.22;;;0.79;97.71
34674;BME280;20879;55.668;37.858;2024-01-30T08:29:31;100868.34;;;0.76;97.16
34674;BME280;20879;55.668;37.858;2024-01-30T08:34:38;100880.41;;;0.80;97.91
34674;BME280;20879;55.668;37.858;2024-01-30T08:39:54;100877.44;;;0.91;97.39
34674;BME280;20879;55.668;37.858;2024-01-30T08:45:10;100886.25;;;0.78;96.84
34674;BME280;20879;55.668;37.858;2024-01-30T08:50:17;100837.63;;;0.54;97.27
34674;BME280;20879;55.668;37.858;2024-01-30T08:55:24;100885.44;;;0.79;97.49
34674;BME280;20879;55.668;37.858;2024-01-30T09:00:37;100867.03;;;0.86;96.91
34674;BME280;20879;55.668;37.858;2024-01-30T09:05:44;100860.00;;;1.00;97.26
34674;BME280;20879;55.668;37.858;2024-01-30T09:10:55;100879.25;;;0.93;97.11
34674;BME280;20879;55.668;37.858;2024-01-30T09:16:06;100859.69;;;0.94;96.86
34674;BME280;20879;55.668;37.858;2024-01-30T09:21:18;100874.16;;;0.93;96.29
34674;BME280;20879;55.668;37.858;2024-01-30T09:26:29;100888.00;;;1.19;96.43
34674;BME280;20879;55.668;37.858;2024-01-30T09:31:36;100871.81;;;1.40;96.98
34674;BME280;20879;55.668;37.858;2024-01-30T09:36:47;100873.94;;;1.50;96.06
34674;BME280;20879;55.668;37.858;2024-01-30T09:42:02;100866.00;;;1.65;94.93
34674;BME280;20879;55.668;37.858;2024-01-30T09:47:11;100857.44;;;1.86;94.58
34674;BME280;20879;55.668;37.858;2024-01-30T09:52:19;100867.47;;;1.59;93.50
34674;BME280;20879;55.668;37.858;2024-01-30T09:57:39;100871.56;;;1.55;92.61
34674;BME280;20879;55.668;37.858;2024-01-30T10:02:44;100860.28;;;1.71;91.69
34674;BME280;20879;55.668;37.858;2024-01-30T10:07:58;100859.63;;;1.54;92.65
34674;BME280;20879;55.668;37.858;2024-01-30T10:13:08;100864.03;;;1.58;92.75
34674;BME280;20879;55.668;37.858;2024-01-30T10:18:24;100879.59;;;1.64;92.57
34674;BME280;20879;55.668;37.858;2024-01-30T10:23:32;100867.22;;;1.52;93.42
34674;BME280;20879;55.668;37.858;2024-01-30T10:28:43;100901.38;;;1.77;93.40
34674;BME280;20879;55.668;37.858;2024-01-30T10:33:50;100884.16;;;1.71;93.46
34674;BME280;20879;55.668;37.858;2024-01-30T10:39:21;100879.16;;;1.53;93.36
34674;BME280;20879;55.668;37.858;2024-01-30T10:44:29;100868.25;;;1.57;93.58
34674;BME280;20879;55.668;37.858;2024-01-30T10:49:35;100871.56;;;1.55;93.46
34674;BME280;20879;55.668;37.858;2024-01-30T10:54:45;100863.09;;;1.56;92.93
34674;BME280;20879;55.668;37.858;2024-01-30T11:00:15;100865.66;;;1.56;92.55
34674;BME280;20879;55.668;37.858;2024-01-30T11:05:29;100871.06;;;1.64;92.68
34674;BME280;20879;55.668;37.858;2024-01-30T11:10:46;100873.78;;;1.68;92.61
34674;BME280;20879;55.668;37.858;2024-01-30T11:15:51;100884.63;;;1.84;91.21
34674;BME280;20879;55.668;37.858;2024-01-30T11:20:59;100862.16;;;1.98;91.00
34674;BME280;20879;55.668;37.858;2024-01-30T11:26:06;100878.13;;;1.92;90.59
34674;BME280;20879;55.668;37.858;2024-01-30T11:31:20;100880.81;;;1.95;90.22
34674;BME280;20879;55.668;37.858;2024-01-30T11:36:27;100877.00;;;1.85;90.16
34674;BME280;20879;55.668;37.858;2024-01-30T11:41:36;100882.88;;;1.83;90.71
34674;BME280;20879;55.668;37.858;2024-01-30T11:46:44;100863.50;;;1.67;90.84
34674;BME280;20879;55.668;37.858;2024-01-30T11:52:01;100901.13;;;1.71;91.27
34674;BME280;20879;55.668;37.858;2024-01-30T11:57:10;100885.16;;;1.54;91.73
34674;BME280;20879;55.668;37.858;2024-01-30T12:02:17;100905.13;;;1.64;91.27
34674;BME280;20879;55.668;37.858;2024-01-30T12:07:23;100919.25;;;1.56;91.99
34674;BME280;20879;55.668;37.858;2024-01-30T12:12:33;100919.88;;;1.50;91.65
34674;BME280;20879;55.668;37.858;2024-01-30T12:17:39;100930.28;;;1.55;92.22
34674;BME280;20879;55.668;37.858;2024-01-30T12:22:48;100905.53;;;1.52;92.11
34674;BME280;20879;55.668;37.858;2024-01-30T12:28:00;100919.69;;;1.46;92.24
34674;BME280;20879;55.668;37.858;2024-01-30T12:33:17;100915.66;;;1.51;92.72
34674;BME280;20879;55.668;37.858;2024-01-30T12:38:23;100916.66;;;1.54;92.79
34674;BME280;20879;55.668;37.858;2024-01-30T12:48:37;100927.59;;;1.31;92.52
34674;BME280;20879;55.668;37.858;2024-01-30T12:53:42;100933.00;;;1.38;92.99
34674;BME280;20879;55.668;37.858;2024-01-30T12:58:57;100939.03;;;1.40;93.58
34674;BME280;20879;55.668;37.858;2024-01-30T13:04:15;100932.47;;;1.46;93.21
34674;BME280;20879;55.668;37.858;2024-01-30T13:09:20;100931.53;;;1.44;93.69
34674;BME280;20879;55.668;37.858;2024-01-30T13:14:25;100927.09;;;1.39;93.72
34674;BME280;20879;55.668;37.858;2024-01-30T13:19:40;100929.41;;;1.33;93.61
34674;BME280;20879;55.668;37.858;2024-01-30T13:24:45;100937.69;;;1.28;93.91
34674;BME280;20879;55.668;37.858;2024-01-30T13:29:54;100937.56;;;1.25;93.76
34674;BME280;20879;55.668;37.858;2024-01-30T13:35:12;100938.16;;;1.19;94.39
34674;BME280;20879;55.668;37.858;2024-01-30T13:40:25;100927.06;;;1.18;94.39
34674;BME280;20879;55.668;37.858;2024-01-30T13:45:33;100937.75;;;1.10;94.70
34674;BME280;20879;55.668;37.858;2024-01-30T13:50:42;100944.34;;;1.04;94.85
34674;BME280;20879;55.668;37.858;2024-01-30T13:55:48;100946.84;;;1.03;94.70
34674;BME280;20879;55.668;37.858;2024-01-30T14:00:58;100956.84;;;0.98;95.53
34674;BME280;20879;55.668;37.858;2024-01-30T14:06:14;100962.06;;;1.01;95.43
34674;BME280;20879;55.668;37.858;2024-01-30T14:11:20;100951.03;;;1.02;95.17
34674;BME280;20879;55.668;37.858;2024-01-30T14:16:26;100972.22;;;1.00;95.02
34674;BME280;20879;55.668;37.858;2024-01-30T14:21:41;100956.88;;;0.80;95.56
34674;BME280;20879;55.668;37.858;2024-01-30T14:26:48;100974.19;;;0.87;96.13
34674;BME280;20879;55.668;37.858;2024-01-30T14:31:53;100970.66;;;0.84;95.96
34674;BME280;20879;55.668;37.858;2024-01-30T14:42:21;100973.41;;;0.89;95.56
34674;BME280;20879;55.668;37.858;2024-01-30T14:47:31;100985.91;;;0.82;95.87
34674;BME280;20879;55.668;37.858;2024-01-30T14:52:43;100985.91;;;0.82;96.14
34674;BME280;20879;55.668;37.858;2024-01-30T14:57:54;100983.22;;;0.79;95.99
34674;BME280;20879;55.668;37.858;2024-01-30T15:03:02;100984.88;;;0.79;96.20
34674;BME280;20879;55.668;37.858;2024-01-30T15:08:19;100991.47;;;0.74;96.78
34674;BME280;20879;55.668;37.858;2024-01-30T15:13:30;100990.50;;;0.72;96.62
34674;BME280;20879;55.668;37.858;2024-01-30T15:18:35;100999.56;;;0.65;96.92
34674;BME280;20879;55.668;37.858;2024-01-30T15:23:41;101008.41;;;0.73;96.83
34674;BME280;20879;55.668;37.858;2024-01-30T15:28:53;101010.38;;;0.79;96.58
34674;BME280;20879;55.668;37.858;2024-01-30T15:34:05;101013.88;;;0.81;96.90
34674;BME280;20879;55.668;37.858;2024-01-30T15:39:20;101026.31;;;0.75;96.57
34674;BME280;20879;55.668;37.858;2024-01-30T15:44:33;101025.78;;;0.62;96.59
34674;BME280;20879;55.668;37.858;2024-01-30T15:49:45;101034.97;;;0.59;97.08
34674;BME280;20879;55.668;37.858;2024-01-30T15:54:50;101030.72;;;0.59;97.02
34674;BME280;20879;55.668;37.858;2024-01-30T15:59:58;101038.25;;;0.56;97.11
34674;BME280;20879;55.668;37.858;2024-01-30T16:05:14;101030.31;;;0.50;97.79
34674;BME280;20879;55.668;37.858;2024-01-30T16:10:19;101044.13;;;0.55;97.65
34674;BME280;20879;55.668;37.858;2024-01-30T16:15:28;101044.13;;;0.55;97.71
34674;BME280;20879;55.668;37.858;2024-01-30T16:20:39;101040.94;;;0.59;97.97
34674;BME280;20879;55.668;37.858;2024-01-30T16:25:52;101039.69;;;0.51;97.55
34674;BME280;20879;55.668;37.858;2024-01-30T16:31:02;101035.25;;;0.47;98.02
34674;BME280;20879;55.668;37.858;2024-01-30T16:36:23;101039.41;;;0.45;97.87
34674;BME280;20879;55.668;37.858;2024-01-30T16:41:31;101038.84;;;0.32;97.99
34674;BME280;20879;55.668;37.858;2024-01-30T16:46:44;101048.22;;;0.33;98.68
34674;BME280;20879;55.668;37.858;2024-01-30T16:52:00;101045.53;;;0.30;98.61
34674;BME280;20879;55.668;37.858;2024-01-30T16:57:13;101035.19;;;0.27;99.05
34674;BME280;20879;55.668;37.858;2024-01-30T17:02:21;101037.72;;;0.27;98.73
34674;BME280;20879;55.668;37.858;2024-01-30T17:07:35;101044.31;;;0.22;99.05
34674;BME280;20879;55.668;37.858;2024-01-30T17:13:05;101039.41;;;0.27;99.05
34674;BME280;20879;55.668;37.858;2024-01-30T17:18:20;101038.38;;;0.23;98.75
34674;BME280;20879;55.668;37.858;2024-01-30T17:23:25;101041.50;;;0.17;98.80
34674;BME280;20879;55.668;37.858;2024-01-30T17:28:36;101047.41;;;0.16;99.14
34674;BME280;20879;55.668;37.858;2024-01-30T17:33:48;101049.91;;;0.15;99.25
34674;BME280;20879;55.668;37.858;2024-01-30T17:39:10;101044.81;;;0.15;99.23
34674;BME280;20879;55.668;37.858;2024-01-30T17:44:19;101050.41;;;0.08;99.14
34674;BME280;20879;55.668;37.858;2024-01-30T17:49:31;101048.00;;;0.11;99.15
34674;BME280;20879;55.668;37.858;2024-01-30T17:54:42;101051.25;;;0.08;99.68
34674;BME280;20879;55.668;37.858;2024-01-30T18:00:03;101050.09;;;0.02;99.44
34674;BME280;20879;55.668;37.858;2024-01-30T18:05:12;101047.31;;;-0.03;100.00
34674;BME280;20879;55.668;37.858;2024-01-30T18:10:25;101041.34;;;-0.04;99.91
34674;BME280;20879;55.668;37.858;2024-01-30T18:15:39;101051.25;;;-0.10;100.00
34674;BME280;20879;55.668;37.858;2024-01-30T18:20:46;101049.47;;;-0.11;100.00
34674;BME280;20879;55.668;37.858;2024-01-30T18:25:53;101046.78;;;-0.14;100.00
34674;BME280;20879;55.668;37.858;2024-01-30T18:31:03;101047.91;;;-0.25;100.00
34674;BME280;20879;55.668;37.858;2024-01-30T18:36:11;101038.47;;;-0.28;100.00
34674;BME280;20879;55.668;37.858;2024-01-30T18:41:18;101032.84;;;-0.39;100.00
34674;BME280;20879;55.668;37.858;2024-01-30T18:46:29;101031.19;;;-0.55;100.00
34674;BME280;20879;55.668;37.858;2024-01-30T18:51:53;101036.03;;;-0.59;100.00
34674;BME280;20879;55.668;37.858;2024-01-30T18:57:00;101034.06;;;-0.65;100.00
34674;BME280;20879;55.668;37.858;2024-01-30T19:02:11;101027.31;;;-0.81;100.00
34674;BME280;20879;55.668;37.858;2024-01-30T19:07:19;101042.16;;;-0.72;100.00
34674;BME280;20879;55.668;37.858;2024-01-30T19:12:35;101029.06;;;-0.80;100.00
34674;BME280;20879;55.668;37.858;2024-01-30T19:17:53;101034.00;;;-0.83;100.00
34674;BME280;20879;55.668;37.858;2024-01-30T19:23:01;101020.06;;;-0.90;100.00
34674;BME280;20879;55.668;37.858;2024-01-30T19:28:12;101016.91;;;-1.02;100.00
34674;BME280;20879;55.668;37.858;2024-01-30T19:33:19;101038.25;;;-0.98;100.00
34674;BME280;20879;55.668;37.858;2024-01-30T19:38:27;101034.47;;;-1.07;100.00
34674;BME280;20879;55.668;37.858;2024-01-30T19:43:32;101034.13;;;-1.13;100.00
34674;BME280;20879;55.668;37.858;2024-01-30T19:48:43;101049.56;;;-1.10;100.00
34674;BME280;20879;55.668;37.858;2024-01-30T19:53:53;101038.66;;;-1.07;100.00
34674;BME280;20879;55.668;37.858;2024-01-30T19:58:59;101048.09;;;-1.04;100.00
34674;BME280;20879;55.668;37.858;2024-01-30T20:04:04;101036.03;;;-1.09;100.00
34674;BME280;20879;55.668;37.858;2024-01-30T20:09:18;101037.63;;;-1.11;100.00
34674;BME280;20879;55.668;37.858;2024-01-30T20:14:29;101038.31;;;-1.13;100.00
34674;BME280;20879;55.668;37.858;2024-01-30T20:19:37;101047.78;;;-1.11;100.00
34674;BME280;20879;55.668;37.858;2024-01-30T20:24:55;101041.75;;;-1.13;100.00
34674;BME280;20879;55.668;37.858;2024-01-30T20:30:14;101038.09;;;-1.18;100.00
34674;BME280;20879;55.668;37.858;2024-01-30T20:35:22;101035.75;;;-1.30;100.00
34674;BME280;20879;55.668;37.858;2024-01-30T20:40:32;101041.88;;;-1.26;100.00
34674;BME280;20879;55.668;37.858;2024-01-30T20:45:42;101037.25;;;-1.33;100.00
34674;BME280;20879;55.668;37.858;2024-01-30T20:50:47;101033.75;;;-1.35;100.00
34674;BME280;20879;55.668;37.858;2024-01-30T20:55:54;101034.53;;;-1.36;100.00
34674;BME280;20879;55.668;37.858;2024-01-30T21:01:03;101035.75;;;-1.30;100.00
34674;BME280;20879;55.668;37.858;2024-01-30T21:06:13;101034.91;;;-1.14;100.00
34674;BME280;20879;55.668;37.858;2024-01-30T21:11:26;101042.94;;;-1.06;100.00
34674;BME280;20879;55.668;37.858;2024-01-30T21:16:31;101038.25;;;-0.98;100.00
34674;BME280;20879;55.668;37.858;2024-01-30T21:21:41;101041.16;;;-0.92;100.00
34674;BME280;20879;55.668;37.858;2024-01-30T21:26:56;101032.38;;;-0.81;100.00
34674;BME280;20879;55.668;37.858;2024-01-30T21:32:02;101030.97;;;-0.76;100.00
34674;BME280;20879;55.668;37.858;2024-01-30T21:37:10;101035.66;;;-0.67;100.00
34674;BME280;20879;55.668;37.858;2024-01-30T21:42:25;101036.13;;;-0.58;100.00
34674;BME280;20879;55.668;37.858;2024-01-30T21:47:34;101022.19;;;-0.48;100.00
34674;BME280;20879;55.668;37.858;2024-01-30T21:52:39;101019.88;;;-0.43;100.00
34674;BME280;20879;55.668;37.858;2024-01-30T21:57:47;101013.03;;;-0.44;100.00
34674;BME280;20879;55.668;37.858;2024-01-30T22:02:52;101015.34;;;-0.49;100.00
34674;BME280;20879;55.668;37.858;2024-01-30T22:08:00;101008.13;;;-0.58;100.00
34674;BME280;20879;55.668;37.858;2024-01-30T22:13:14;100991.44;;;-0.69;100.00
34674;BME280;20879;55.668;37.858;2024-01-30T22:18:22;100991.28;;;-0.72;100.00
34674;BME280;20879;55.668;37.858;2024-01-30T22:23:30;101004.97;;;-0.70;100.00
34674;BME280;20879;55.668;37.858;2024-01-30T22:28:50;100990.59;;;-0.69;100.00
34674;BME280;20879;55.668;37.858;2024-01-30T22:33:57;100989.16;;;-0.64;100.00
34674;BME280;20879;55.668;37.858;2024-01-30T22:39:03;100991.19;;;-0.57;100.00
34674;BME280;20879;55.668;37.858;2024-01-30T22:44:13;101002.75;;;-0.64;100.00
34674;BME280;20879;55.668;37.858;2024-01-30T22:49:19;100999.78;;;-0.55;100.00
34674;BME280;20879;55.668;37.858;2024-01-30T22:54:30;100990.16;;;-0.61;100.00
34674;BME280;20879;55.668;37.858;2024-01-30T22:59:47;100988.56;;;-0.59;100.00
34674;BME280;20879;55.668;37.858;2024-01-30T23:04:52;100981.91;;;-0.57;100.00
34674;BME280;20879;55.668;37.858;2024-01-30T23:10:06;100997.78;;;-0.44;100.00
34674;BME280;20879;55.668;37.858;2024-01-30T23:15:19;100990.84;;;-0.30;100.00
34674;BME280;20879;55.668;37.858;2024-01-30T23:20:26;100990.56;;;-0.19;100.00
34674;BME280;20879;55.668;37.858;2024-01-30T23:25:33;100970.63;;;-0.09;100.00
34674;BME280;20879;55.668;37.858;2024-01-30T23:30:42;100981.41;;;0.03;100.00
34674;BME280;20879;55.668;37.858;2024-01-30T23:35:47;100984.31;;;0.11;100.00
34674;BME280;20879;55.668;37.858;2024-01-30T23:40:59;100974.06;;;0.09;100.00
34674;BME280;20879;55.668;37.858;2024-01-30T23:46:16;100955.06;;;0.03;100.00
34674;BME280;20879;55.668;37.858;2024-01-30T23:51:27;100972.91;;;0.21;100.00
34674;BME280;20879;55.668;37.858;2024-01-30T23:56:38;100959.56;;;0.26;100.00
